Time;durP1;ratioP1;P1;durP2;ratioP2;P2;SDS_P1;SDS_P2;PMS_P1;PMS_P2;Temp;Humidity;BMP_temperature;BMP_pressure;BME280_temperature;BME280_humidity;BME280_pressure;Samples;Min_cycle;Max_cycle;Signal;HPM_P1;HPM_P2
2022/04/07 00:00:07;;;;;;;23.92;15.43;;;7.20;99.90;;;;;;4996637;28;20037;-86
2022/04/07 00:02:33;;;;;;;28.92;16.27;;;7.20;99.90;;;;;;4996375;28;20061;-85
2022/04/07 00:04:58;;;;;;;22.17;14.30;;;7.20;99.90;;;;;;4996064;28;20080;-86
2022/04/07 00:07:24;;;;;;;22.80;14.45;;;7.00;99.90;;;;;;4995566;28;20044;-86
2022/04/07 00:09:50;;;;;;;29.55;14.88;;;7.10;99.90;;;;;;4995970;28;20033;-85
2022/04/07 00:12:15;;;;;;;23.52;14.85;;;7.00;99.90;;;;;;4995659;28;20033;-86
2022/04/07 00:14:41;;;;;;;21.80;13.50;;;7.00;99.90;;;;;;4995892;28;20026;-85
2022/04/07 00:17:07;;;;;;;20.42;12.07;;;7.00;99.90;;;;;;4995645;28;20366;-86
2022/04/07 00:19:57;;;;;;;24.85;12.48;;;7.00;99.90;;;;;;4996049;28;20849;-85
2022/04/07 00:22:23;;;;;;;19.92;11.85;;;7.00;99.90;;;;;;4996258;28;20034;-86
2022/04/07 00:24:49;;;;;;;21.02;11.15;;;7.00;99.90;;;;;;4996064;28;20481;-86
2022/04/07 00:27:16;;;;;;;21.70;11.55;;;7.00;99.90;;;;;;4995743;28;20034;-86
2022/04/07 00:29:41;;;;;;;19.85;11.07;;;7.00;99.90;;;;;;4995807;28;20448;-85
2022/04/07 00:32:08;;;;;;;20.27;11.27;;;7.00;99.90;;;;;;4996043;28;20034;-86
2022/04/07 00:34:33;;;;;;;15.00;9.90;;;7.00;99.90;;;;;;4995943;28;20109;-85
2022/04/07 00:36:59;;;;;;;17.35;10.32;;;7.00;99.90;;;;;;4995598;28;20057;-85
2022/04/07 00:39:25;;;;;;;18.08;10.07;;;7.00;99.90;;;;;;4995674;28;20034;-85
2022/04/07 00:41:51;;;;;;;18.45;9.75;;;7.10;99.90;;;;;;4995808;28;20042;-85
2022/04/07 00:44:16;;;;;;;16.17;10.73;;;7.10;99.90;;;;;;4995730;28;20092;-85
2022/04/07 00:46:42;;;;;;;16.42;10.05;;;7.10;99.90;;;;;;4995173;28;20171;-86
2022/04/07 00:49:09;;;;;;;22.25;12.52;;;7.10;99.90;;;;;;4995600;28;20056;-85
2022/04/07 00:51:37;;;;;;;20.92;11.98;;;7.10;99.90;;;;;;4995462;28;20075;-85
2022/04/07 00:54:03;;;;;;;19.27;11.75;;;7.10;99.90;;;;;;4995246;28;20029;-85
2022/04/07 00:56:31;;;;;;;22.95;12.35;;;7.10;99.90;;;;;;4995338;28;20026;-85
2022/04/07 00:58:57;;;;;;;17.98;11.82;;;7.00;99.90;;;;;;4994998;28;20066;-85
2022/04/07 01:01:27;;;;;;;19.55;12.27;;;7.00;99.90;;;;;;4995351;28;20148;-85
2022/04/07 01:03:54;;;;;;;20.90;11.60;;;6.90;99.90;;;;;;4995328;28;20114;-85
2022/04/07 01:06:57;;;;;;;19.77;10.95;;;6.80;99.90;;;;;;4995067;28;20038;-85
2022/04/07 01:09:23;;;;;;;16.70;10.20;;;6.70;99.90;;;;;;5011371;28;20493;-85
2022/04/07 01:11:50;;;;;;;18.20;10.02;;;6.60;99.90;;;;;;4995207;28;20117;-84
2022/04/07 01:14:16;;;;;;;21.23;10.38;;;6.50;99.90;;;;;;4995396;28;20081;-85
2022/04/07 01:16:42;;;;;;;17.02;9.73;;;6.50;99.90;;;;;;4995381;28;20057;-85
2022/04/07 01:19:07;;;;;;;24.10;9.82;;;6.50;99.90;;;;;;4994840;28;20026;-85
2022/04/07 01:21:35;;;;;;;14.73;9.07;;;6.40;99.90;;;;;;5011178;28;20037;-85
2022/04/07 01:24:07;;;;;;;18.50;9.43;;;6.40;99.90;;;;;;4995008;28;20053;-85
2022/04/07 01:26:33;;;;;;;;;;;6.30;99.90;;;;;;5011924;28;20041;-85
2022/04/07 01:29:00;;;;;;;20.30;8.77;;;6.30;99.90;;;;;;4994723;28;20392;-85
2022/04/07 01:31:27;;;;;;;21.08;9.05;;;6.30;99.90;;;;;;5011637;28;20439;-85
2022/04/07 01:33:55;;;;;;;14.70;8.02;;;6.30;99.90;;;;;;4995621;28;20038;-85
2022/04/07 01:36:21;;;;;;;13.25;8.60;;;6.30;99.90;;;;;;5012936;28;20049;-86
2022/04/07 01:38:47;;;;;;;14.23;8.38;;;6.20;99.90;;;;;;4994916;28;20073;-86
2022/04/07 01:41:13;;;;;;;15.05;7.57;;;6.20;99.90;;;;;;4995306;28;20033;-85
2022/04/07 01:43:40;;;;;;;18.42;8.00;;;6.20;99.90;;;;;;5011404;28;20032;-85
2022/04/07 01:46:08;;;;;;;16.13;8.25;;;6.20;99.90;;;;;;4995018;28;20113;-85
2022/04/07 01:48:34;;;;;;;15.85;7.63;;;6.20;99.90;;;;;;4994641;28;20493;-85
2022/04/07 01:51:02;;;;;;;14.13;7.80;;;6.30;99.90;;;;;;4996003;28;20125;-86
2022/04/07 01:53:29;;;;;;;13.93;7.03;;;6.40;99.90;;;;;;4998405;28;20053;-85
2022/04/07 01:55:55;;;;;;;11.02;7.65;;;6.40;99.90;;;;;;4998425;28;20428;-85
2022/04/07 01:58:22;;;;;;;12.18;7.63;;;6.50;99.90;;;;;;4998793;28;20041;-86
2022/04/07 02:00:48;;;;;;;11.45;6.47;;;6.50;99.90;;;;;;5031496;28;20037;-85
2022/04/07 02:03:14;;;;;;;13.65;6.20;;;6.50;99.90;;;;;;5015872;28;20030;-86
2022/04/07 02:05:39;;;;;;;10.05;5.72;;;6.60;99.90;;;;;;4998261;28;20481;-85
2022/04/07 02:08:05;;;;;;;9.48;6.88;;;6.60;99.90;;;;;;4997537;28;20033;-85
2022/04/07 02:10:32;;;;;;;12.82;6.35;;;6.60;99.90;;;;;;5014572;28;20038;-85
2022/04/07 02:12:58;;;;;;;13.82;5.90;;;6.60;99.90;;;;;;5047916;28;20034;-85
2022/04/07 02:15:26;;;;;;;8.57;5.70;;;6.50;99.90;;;;;;5014944;28;20076;-85
2022/04/07 02:17:52;;;;;;;10.13;5.55;;;6.50;99.90;;;;;;4998389;28;20048;-85
2022/04/07 02:20:20;;;;;;;8.43;5.63;;;6.50;99.90;;;;;;4998444;28;20041;-85
2022/04/07 02:22:46;;;;;;;8.73;5.35;;;6.50;99.90;;;;;;4998085;28;20096;-86
2022/04/07 02:25:40;;;;;;;10.80;4.70;;;6.50;99.90;;;;;;4998401;28;20034;-85
2022/04/07 02:28:06;;;;;;;7.97;5.45;;;6.50;99.90;;;;;;5015367;28;20069;-85
2022/04/07 02:30:31;;;;;;;9.73;4.47;;;6.50;99.90;;;;;;5013949;28;20115;-85
2022/04/07 02:32:57;;;;;;;8.05;4.93;;;6.50;99.90;;;;;;4997822;28;20030;-85
2022/04/07 02:35:41;;;;;;;7.65;5.22;;;6.40;99.90;;;;;;4997724;28;20049;-86
2022/04/07 02:38:07;;;;;;;13.68;5.90;;;6.40;99.90;;;;;;4997432;28;20037;-85
2022/04/07 02:40:33;;;;;;;7.20;5.25;;;6.40;99.90;;;;;;4997801;28;20030;-85
2022/04/07 02:42:58;;;;;;;7.80;5.38;;;6.40;99.90;;;;;;4997723;28;20076;-84
2022/04/07 02:45:33;;;;;;;10.23;6.20;;;6.40;99.90;;;;;;5015283;28;20026;-85
2022/04/07 02:47:59;;;;;;;13.38;6.00;;;6.40;99.90;;;;;;5013447;28;20088;-85
2022/04/07 02:50:24;;;;;;;13.82;6.57;;;6.40;99.90;;;;;;4997434;28;20855;-85
2022/04/07 02:52:50;;;;;;;8.35;6.28;;;6.40;99.90;;;;;;4997638;28;20022;-86
2022/04/07 02:55:19;;;;;;;12.90;6.40;;;6.50;99.90;;;;;;5014151;28;20108;-84
2022/04/07 02:57:45;;;;;;;9.23;6.93;;;6.40;99.90;;;;;;5015169;28;20533;-85
2022/04/07 03:00:11;;;;;;;9.85;7.80;;;6.40;99.90;;;;;;4997274;28;20045;-85
2022/04/07 03:02:46;;;;;;;14.77;8.00;;;6.40;99.90;;;;;;4996196;28;20054;-85
2022/04/07 03:05:12;;;;;;;14.90;10.02;;;6.40;99.90;;;;;;4997487;28;20036;-85
2022/04/07 03:07:37;;;;;;;12.05;7.45;;;6.40;99.90;;;;;;4997135;28;20121;-85
2022/04/07 03:10:04;;;;;;;10.93;7.95;;;6.40;99.90;;;;;;4997374;28;20504;-85
2022/04/07 03:12:29;;;;;;;12.30;7.85;;;6.40;99.90;;;;;;4997073;28;20034;-85
2022/04/07 03:14:55;;;;;;;9.82;6.78;;;6.40;99.90;;;;;;4996903;28;20026;-85
2022/04/07 03:17:20;;;;;;;13.07;7.43;;;6.50;99.90;;;;;;4996794;28;20034;-85
2022/04/07 03:19:46;;;;;;;10.77;7.97;;;6.40;99.90;;;;;;4989564;28;20026;-85
2022/04/07 03:22:12;;;;;;;10.75;7.18;;;6.40;99.90;;;;;;4996585;28;20030;-85
2022/04/07 03:24:38;;;;;;;12.43;8.27;;;6.40;99.90;;;;;;5029227;28;20084;-85
2022/04/07 03:27:06;;;;;;;14.95;7.38;;;6.40;99.90;;;;;;5011683;28;20065;-86
2022/04/07 03:29:32;;;;;;;19.02;8.32;;;6.40;99.90;;;;;;5012692;28;20104;-85
2022/04/07 03:32:19;;;;;;;9.70;6.38;;;6.40;99.90;;;;;;5028851;28;20065;-85
2022/04/07 03:34:45;;;;;;;8.95;6.20;;;6.40;99.90;;;;;;5013364;28;20058;-85
2022/04/07 03:37:11;;;;;;;12.43;7.32;;;6.40;99.90;;;;;;5013636;28;20041;-85
2022/04/07 03:39:37;;;;;;;14.45;7.28;;;6.40;99.90;;;;;;4995911;28;20038;-85
2022/04/07 03:42:03;;;;;;;10.43;7.72;;;6.40;99.90;;;;;;5012661;28;20079;-86
2022/04/07 03:44:28;;;;;;;14.65;8.48;;;6.40;99.90;;;;;;4996342;28;20103;-85
2022/04/07 03:46:54;;;;;;;11.85;8.02;;;6.40;99.90;;;;;;4996327;28;20045;-85
2022/04/07 03:49:20;;;;;;;11.25;7.18;;;6.40;99.90;;;;;;4996651;28;20118;-85
2022/04/07 03:51:46;;;;;;;11.85;7.07;;;6.40;99.90;;;;;;4996950;28;20079;-85
2022/04/07 03:54:12;;;;;;;12.38;7.63;;;6.40;99.90;;;;;;4996682;28;20026;-85
2022/04/07 03:56:46;;;;;;;11.40;8.02;;;6.40;99.90;;;;;;5029271;28;20466;-86
2022/04/07 03:59:12;;;;;;;10.95;7.97;;;6.40;99.90;;;;;;4996173;28;20057;-85
2022/04/07 04:01:39;;;;;;;16.02;9.27;;;6.40;99.90;;;;;;5013786;28;20124;-86
2022/04/07 04:04:05;;;;;;;11.63;8.43;;;6.40;99.90;;;;;;5012542;28;20026;-86
2022/04/07 04:06:32;;;;;;;15.90;9.32;;;6.40;99.90;;;;;;4995233;28;20056;-86
2022/04/07 04:08:58;;;;;;;11.85;7.47;;;6.40;99.90;;;;;;4995380;28;20041;-85
2022/04/07 04:11:24;;;;;;;8.45;6.75;;;6.40;99.90;;;;;;4995996;28;20417;-85
2022/04/07 04:13:49;;;;;;;11.82;6.05;;;6.40;99.90;;;;;;4995648;28;20022;-85
2022/04/07 04:16:17;;;;;;;12.10;7.10;;;6.40;99.90;;;;;;4995965;28;20026;-85
2022/04/07 04:18:43;;;;;;;12.18;7.97;;;6.40;99.90;;;;;;5028572;28;20049;-85
2022/04/07 04:21:10;;;;;;;14.20;7.10;;;6.40;99.90;;;;;;4995992;28;20124;-86
2022/04/07 04:23:35;;;;;;;8.88;7.75;;;6.40;99.90;;;;;;5028737;28;20073;-85
2022/04/07 04:26:03;;;;;;;15.18;9.95;;;6.40;99.90;;;;;;4995842;28;20104;-85
2022/04/07 04:28:28;;;;;;;13.60;8.43;;;6.40;99.90;;;;;;5028391;28;20021;-85
2022/04/07 04:30:54;;;;;;;16.67;7.97;;;6.50;99.90;;;;;;4995898;28;20052;-85
2022/04/07 04:33:20;;;;;;;9.95;6.60;;;6.50;99.90;;;;;;4995962;28;20021;-85
2022/04/07 04:36:08;;;;;;;8.48;6.30;;;6.50;99.90;;;;;;4995521;28;20038;-85
2022/04/07 04:38:34;;;;;;;9.63;7.50;;;6.50;99.90;;;;;;5028482;28;20030;-85
2022/04/07 04:41:00;;;;;;;9.98;7.28;;;6.50;99.90;;;;;;4995621;28;20038;-85
2022/04/07 04:43:25;;;;;;;9.40;7.97;;;6.50;99.90;;;;;;5011900;28;20046;-85
2022/04/07 04:45:51;;;;;;;12.77;8.43;;;6.50;99.90;;;;;;4995971;28;20117;-85
2022/04/07 04:48:17;;;;;;;10.25;7.53;;;6.40;99.90;;;;;;4995050;28;20033;-86
2022/04/07 04:50:42;;;;;;;12.60;8.70;;;6.50;99.90;;;;;;4995013;28;20029;-88
2022/04/07 04:53:08;;;;;;;10.40;8.35;;;6.50;99.90;;;;;;4996070;28;20121;-88
2022/04/07 04:55:49;;;;;;;10.10;6.90;;;6.50;99.90;;;;;;4996250;28;20041;-88
2022/04/07 04:58:15;;;;;;;11.52;6.10;;;6.40;99.90;;;;;;4996412;28;20038;-88
2022/04/07 05:00:41;;;;;;;9.00;6.80;;;6.40;99.90;;;;;;4995921;28;20034;-88
2022/04/07 05:03:07;;;;;;;12.70;8.23;;;6.40;99.90;;;;;;5012118;28;20030;-88
2022/04/07 05:05:33;;;;;;;11.27;8.52;;;6.40;99.90;;;;;;5012137;28;20030;-88
2022/04/07 05:07:59;;;;;;;13.65;8.27;;;6.40;99.90;;;;;;4995424;28;20470;-88
2022/04/07 05:10:25;;;;;;;20.08;14.15;;;6.40;99.90;;;;;;4995768;28;20486;-88
2022/04/07 05:12:51;;;;;;;12.98;10.27;;;6.40;99.90;;;;;;4995852;28;20022;-88
2022/04/07 05:15:17;;;;;;;15.05;9.27;;;6.40;99.90;;;;;;5012071;28;20033;-87
2022/04/07 05:17:50;;;;;;;14.82;10.52;;;6.40;99.90;;;;;;5028240;28;20030;-87
2022/04/07 05:20:16;;;;;;;16.17;10.75;;;6.30;99.90;;;;;;4995740;28;20037;-88
2022/04/07 05:22:42;;;;;;;15.68;10.55;;;6.30;99.90;;;;;;4995459;28;20026;-88
2022/04/07 05:25:08;;;;;;;19.42;10.82;;;6.30;99.90;;;;;;4995433;28;20212;-87
2022/04/07 05:27:36;;;;;;;16.90;11.18;;;6.40;99.90;;;;;;5000223;28;20938;-88
2022/04/07 05:30:15;;;;;;;20.27;12.10;;;6.30;99.90;;;;;;4999765;28;20034;-88
2022/04/07 05:32:56;;;;;;;19.20;11.07;;;6.40;99.90;;;;;;4999334;28;20033;-88
2022/04/07 05:35:26;;;;;;;17.15;11.82;;;6.30;99.90;;;;;;5016977;28;20040;-88
2022/04/07 05:37:59;;;;;;;20.90;11.30;;;6.40;99.90;;;;;;4999645;28;20045;-88
2022/04/07 05:40:26;;;;;;;16.27;9.75;;;6.40;99.90;;;;;;5000136;28;20088;-87
2022/04/07 05:42:52;;;;;;;15.00;9.73;;;6.50;99.90;;;;;;5032330;28;20034;-88
2022/04/07 05:45:17;;;;;;;17.88;9.85;;;6.50;99.90;;;;;;4999201;28;20363;-88
2022/04/07 05:47:43;;;;;;;14.38;9.85;;;6.50;99.90;;;;;;4999168;28;20037;-87
2022/04/07 05:50:11;;;;;;;14.52;8.90;;;6.50;99.90;;;;;;4999544;28;20109;-88
2022/04/07 05:52:37;;;;;;;12.60;8.48;;;6.50;99.90;;;;;;4999759;28;20026;-89
2022/04/07 05:55:04;;;;;;;13.82;8.50;;;6.50;99.90;;;;;;5016905;28;20033;-88
2022/04/07 05:57:30;;;;;;;10.50;6.40;;;6.50;99.90;;;;;;4999525;28;20453;-88
2022/04/07 06:00:12;;;;;;;11.40;6.63;;;6.50;99.90;;;;;;5015554;28;20489;-88
2022/04/07 06:02:39;;;;;;;6.70;4.93;;;6.50;99.90;;;;;;4999594;28;20034;-88
2022/04/07 06:05:06;;;;;;;8.32;5.10;;;6.60;99.90;;;;;;4998974;28;20068;-88
2022/04/07 06:07:32;;;;;;;9.90;3.78;;;6.60;99.90;;;;;;4999070;28;20045;-88
2022/04/07 06:09:57;;;;;;;6.05;3.70;;;6.60;99.90;;;;;;5015411;28;20034;-88
2022/04/07 06:12:23;;;;;;;6.50;3.90;;;6.70;99.90;;;;;;4998498;28;20036;-89
2022/04/07 06:14:49;;;;;;;8.93;4.28;;;6.70;99.90;;;;;;4999075;28;20053;-89
2022/04/07 06:17:14;;;;;;;10.57;4.50;;;6.80;99.90;;;;;;4999191;28;20493;-89
2022/04/07 06:19:40;;;;;;;7.68;4.43;;;6.90;99.90;;;;;;4998907;28;20065;-88
2022/04/07 06:22:07;;;;;;;5.70;3.55;;;6.90;99.90;;;;;;4999420;28;20030;-89
2022/04/07 06:24:36;;;;;;;4.90;3.10;;;6.90;99.90;;;;;;5015064;28;20038;-88
2022/04/07 06:27:04;;;;;;;5.38;2.92;;;7.00;99.90;;;;;;5031260;28;20037;-88
2022/04/07 06:29:30;;;;;;;3.63;2.08;;;7.00;99.90;;;;;;4998846;28;20038;-88
2022/04/07 06:31:55;;;;;;;3.85;2.20;;;6.90;99.90;;;;;;4998686;28;20088;-88
2022/04/07 06:34:21;;;;;;;3.17;1.80;;;6.90;99.90;;;;;;5014750;28;20030;-88
2022/04/07 06:36:47;;;;;;;4.53;2.10;;;6.80;99.90;;;;;;4998297;28;20038;-89
2022/04/07 06:39:13;;;;;;;8.82;3.65;;;6.80;99.90;;;;;;4998686;28;20030;-88
2022/04/07 06:41:39;;;;;;;3.35;2.55;;;6.80;99.90;;;;;;4998709;28;20470;-88
2022/04/07 06:44:05;;;;;;;2.67;2.17;;;6.70;99.90;;;;;;4998528;28;20037;-87
2022/04/07 06:46:32;;;;;;;3.85;2.05;;;6.70;99.90;;;;;;4998147;28;20034;-88
2022/04/07 06:48:59;;;;;;;2.45;2.03;;;6.70;99.90;;;;;;4998210;28;20057;-88
2022/04/07 06:51:25;;;;;;;2.45;1.77;;;6.70;99.90;;;;;;5015512;28;20034;-88
2022/04/07 06:53:50;;;;;;;3.85;2.35;;;6.70;99.90;;;;;;4997753;28;20448;-88
2022/04/07 06:56:16;;;;;;;3.85;2.10;;;6.80;99.90;;;;;;4998024;28;20025;-88
2022/04/07 06:58:42;;;;;;;5.78;2.30;;;6.70;99.90;;;;;;5014092;28;20054;-88
2022/04/07 07:01:08;;;;;;;7.43;3.75;;;6.80;99.90;;;;;;4998103;28;20041;-88
2022/04/07 07:03:34;;;;;;;3.85;2.33;;;6.80;99.90;;;;;;4998033;28;20038;-89
2022/04/07 07:06:00;;;;;;;6.90;2.55;;;6.80;99.90;;;;;;4998208;28;20052;-89
2022/04/07 07:08:26;;;;;;;3.85;2.72;;;6.90;99.90;;;;;;4997699;28;20400;-88
2022/04/07 07:10:53;;;;;;;4.88;2.30;;;6.80;99.90;;;;;;4998045;28;20029;-88
2022/04/07 07:13:21;;;;;;;4.18;2.15;;;6.80;99.90;;;;;;4998009;28;20362;-88
2022/04/07 07:15:50;;;;;;;7.75;2.03;;;6.80;99.90;;;;;;5031045;28;20113;-88
2022/04/07 07:18:16;;;;;;;9.10;2.20;;;6.70;99.90;;;;;;4997594;28;20799;-87
2022/04/07 07:20:42;;;;;;;5.18;2.25;;;6.70;99.90;;;;;;4997594;28;20037;-87
2022/04/07 07:23:11;;;;;;;2.63;2.10;;;6.70;99.90;;;;;;4997675;28;20099;-87
2022/04/07 07:26:04;;;;;;;4.40;2.38;;;6.70;99.90;;;;;;4997868;28;20069;-88
2022/04/07 07:28:30;;;;;;;3.17;2.25;;;6.80;99.90;;;;;;4997427;28;20026;-88
2022/04/07 07:30:56;;;;;;;9.60;1.88;;;6.90;99.90;;;;;;4997747;28;20033;-89
2022/04/07 07:33:22;;;;;;;2.58;1.27;;;6.90;99.90;;;;;;4997312;28;20121;-88
2022/04/07 07:35:47;;;;;;;6.45;1.80;;;6.90;99.90;;;;;;4997868;28;20036;-88
2022/04/07 07:38:13;;;;;;;3.47;1.80;;;6.90;99.90;;;;;;4997546;28;20037;-87
2022/04/07 07:40:39;;;;;;;1.88;1.17;;;7.00;99.90;;;;;;4997606;28;20038;-88
2022/04/07 07:43:04;;;;;;;2.53;1.05;;;6.90;99.90;;;;;;4997393;28;20034;-88
2022/04/07 07:45:34;;;;;;;1.75;1.23;;;7.00;99.90;;;;;;5013974;28;20026;-88
2022/04/07 07:48:00;;;;;;;1.65;1.00;;;7.10;99.90;;;;;;5013064;28;20030;-89
2022/04/07 07:50:26;;;;;;;1.75;0.90;;;7.10;99.90;;;;;;4997151;28;20385;-88
2022/04/07 07:52:51;;;;;;;1.48;1.30;;;7.20;99.90;;;;;;4997426;28;20473;-88
2022/04/07 07:55:18;;;;;;;3.67;1.00;;;7.10;99.90;;;;;;4996773;28;20080;-88
2022/04/07 07:57:44;;;;;;;2.30;1.33;;;7.20;99.90;;;;;;4996813;28;20405;-88
2022/04/07 08:00:12;;;;;;;1.35;0.93;;;7.30;99.90;;;;;;4997167;28;20037;-88
2022/04/07 08:03:00;;;;;;;2.22;0.95;;;7.30;99.90;;;;;;4997121;28;20045;-89
2022/04/07 08:05:25;;;;;;;3.05;0.82;;;7.30;99.90;;;;;;4996855;28;20133;-88
2022/04/07 08:07:51;;;;;;;1.60;0.90;;;7.30;99.90;;;;;;4996583;28;20696;-88
2022/04/07 08:10:17;;;;;;;2.03;0.70;;;7.30;99.90;;;;;;4996389;28;20359;-88
2022/04/07 08:12:42;;;;;;;1.55;0.90;;;7.30;99.90;;;;;;4996626;28;20080;-88
2022/04/07 08:15:09;;;;;;;4.63;1.05;;;7.30;99.90;;;;;;5014089;28;20026;-88
2022/04/07 08:17:35;;;;;;;3.92;1.10;;;7.30;99.90;;;;;;4997006;28;20079;-89
2022/04/07 08:20:03;;;;;;;3.30;0.70;;;7.20;99.90;;;;;;5030334;28;20038;-88
2022/04/07 08:22:29;;;;;;;2.17;0.90;;;7.20;99.90;;;;;;4997403;28;20025;-89
2022/04/07 08:24:56;;;;;;;1.58;1.10;;;7.20;99.90;;;;;;5030630;28;20117;-88
2022/04/07 08:28:02;;;;;;;2.95;0.90;;;7.30;99.90;;;;;;5030483;28;20057;-88
2022/04/07 08:30:33;;;;;;;1.23;0.90;;;7.30;99.90;;;;;;5030591;28;20069;-89
2022/04/07 08:33:00;;;;;;;1.38;0.93;;;7.40;99.90;;;;;;4981641;28;20057;-87
2022/04/07 08:35:26;;;;;;;2.10;0.90;;;7.40;99.90;;;;;;4997308;28;20036;-86
2022/04/07 08:37:51;;;;;;;4.93;0.85;;;7.50;99.90;;;;;;4996837;28;20140;-86
2022/04/07 08:40:21;;;;;;;2.17;1.17;;;7.60;99.90;;;;;;5013647;28;20472;-87
2022/04/07 08:42:47;;;;;;;1.55;0.90;;;7.70;99.90;;;;;;5014637;28;20052;-85
2022/04/07 08:45:13;;;;;;;1.52;0.93;;;7.70;99.90;;;;;;4997572;28;20030;-85
2022/04/07 08:47:40;;;;;;;2.22;1.30;;;7.70;99.90;;;;;;5014496;28;20036;-86
2022/04/07 08:50:07;;;;;;;1.63;1.00;;;7.70;99.90;;;;;;5013313;28;20787;-86
2022/04/07 08:52:34;;;;;;;2.45;1.00;;;7.60;99.90;;;;;;4997303;28;20045;-86
2022/04/07 08:55:00;;;;;;;2.15;1.25;;;7.60;99.90;;;;;;4996433;28;20034;-87
2022/04/07 08:57:27;;;;;;;3.85;2.00;;;7.60;99.90;;;;;;5029596;28;20048;-86
2022/04/07 08:59:53;;;;;;;5.13;1.20;;;7.50;99.90;;;;;;5030797;28;20040;-87
2022/04/07 09:02:20;;;;;;;2.78;1.25;;;7.50;99.90;;;;;;5018805;28;20037;-86
2022/04/07 09:04:45;;;;;;;4.75;1.60;;;7.50;99.90;;;;;;5001162;28;20061;-86
2022/04/07 09:07:15;;;;;;;1.77;1.05;;;7.50;99.90;;;;;;5000588;28;20131;-85
2022/04/07 09:09:41;;;;;;;2.78;1.40;;;7.40;99.90;;;;;;5001831;28;20034;-87
2022/04/07 09:12:07;;;;;;;8.52;3.08;;;7.40;99.90;;;;;;5033647;28;20036;-87
2022/04/07 09:14:35;;;;;;;3.70;1.70;;;7.50;99.90;;;;;;5016776;28;20457;-87
2022/04/07 09:17:01;;;;;;;1.80;1.40;;;7.60;99.90;;;;;;5000602;28;20034;-87
2022/04/07 09:19:29;;;;;;;2.50;1.50;;;7.70;99.90;;;;;;5019202;28;20026;-88
2022/04/07 09:22:07;;;;;;;3.25;1.50;;;7.80;99.90;;;;;;5004311;28;20083;-89
2022/04/07 09:24:34;;;;;;;1.80;1.30;;;7.80;99.90;;;;;;5000244;28;20481;-88
2022/04/07 09:27:03;;;;;;;5.60;1.10;;;7.70;99.90;;;;;;5017776;28;20527;-88
2022/04/07 09:29:42;;;;;;;2.10;1.55;;;7.70;99.90;;;;;;5000338;28;20030;-88
2022/04/07 09:32:19;;;;;;;3.38;2.05;;;7.70;99.90;;;;;;5000578;28;20363;-89
2022/04/07 09:34:50;;;;;;;2.65;1.60;;;7.70;99.90;;;;;;5032077;28;20029;-87
2022/04/07 09:37:23;;;;;;;4.07;1.48;;;7.70;99.90;;;;;;4999776;28;20030;-88
2022/04/07 09:40:20;;;;;;;3.83;1.33;;;7.80;99.90;;;;;;5000307;28;20045;-88
2022/04/07 09:42:57;;;;;;;2.20;1.60;;;7.90;99.90;;;;;;5016134;28;20057;-88
2022/04/07 09:45:23;;;;;;;2.40;1.50;;;8.00;99.90;;;;;;5017948;28;20088;-88
2022/04/07 09:47:49;;;;;;;3.10;1.27;;;7.90;99.90;;;;;;4999650;28;20037;-88
2022/04/07 09:50:29;;;;;;;3.63;1.45;;;7.90;99.90;;;;;;5017471;28;20075;-89
2022/04/07 09:53:06;;;;;;;1.50;0.85;;;7.90;99.90;;;;;;4999826;28;20120;-88
2022/04/07 09:55:37;;;;;;;2.55;1.02;;;7.90;99.90;;;;;;5000098;28;20034;-88
2022/04/07 09:58:05;;;;;;;1.25;1.10;;;7.90;99.90;;;;;;4999212;28;20420;-88
2022/04/07 10:00:46;;;;;;;1.95;1.05;;;7.80;99.90;;;;;;4983290;28;20061;-88
2022/04/07 10:03:13;;;;;;;2.25;1.30;;;7.80;99.90;;;;;;4999529;28;20059;-89
2022/04/07 10:05:39;;;;;;;5.30;1.90;;;7.80;99.90;;;;;;4999760;28;20478;-89
2022/04/07 10:08:07;;;;;;;1.92;1.38;;;7.90;99.90;;;;;;4999834;28;20045;-88
2022/04/07 10:11:19;;;;;;;4.72;1.70;;;7.80;99.90;;;;;;4999468;28;20071;-88
2022/04/07 10:13:46;;;;;;;4.03;1.35;;;7.80;99.90;;;;;;5015257;28;20049;-89
2022/04/07 10:16:16;;;;;;;4.57;1.45;;;7.80;99.90;;;;;;4999442;28;20038;-87
2022/04/07 10:19:09;;;;;;;1.88;1.25;;;7.80;99.90;;;;;;4999236;28;20057;-88
2022/04/07 10:21:57;;;;;;;8.43;4.30;;;7.90;99.90;;;;;;4983475;28;20041;-88
2022/04/07 10:24:35;;;;;;;6.00;2.78;;;8.00;99.90;;;;;;5017191;28;20034;-89
2022/04/07 10:27:08;;;;;;;1.80;1.17;;;8.10;99.90;;;;;;4999116;28;20489;-89
2022/04/07 10:29:34;;;;;;;6.13;1.30;;;8.20;99.90;;;;;;4999446;28;20049;-88
2022/04/07 10:32:12;;;;;;;3.70;1.60;;;8.20;99.90;;;;;;4999256;28;20038;-89
2022/04/07 10:34:55;;;;;;;1.70;1.20;;;8.20;99.90;;;;;;5015605;28;20026;-89
2022/04/07 10:37:39;;;;;;;1.75;0.90;;;8.20;99.90;;;;;;5015486;28;20169;-88
2022/04/07 10:41:01;;;;;;;2.97;2.00;;;8.20;99.90;;;;;;4999378;28;20034;-89
2022/04/07 10:43:27;;;;;;;3.78;1.42;;;8.20;99.90;;;;;;4956572;29;20079;-89
2022/04/07 10:46:05;;;;;;;2.38;1.35;;;8.20;99.90;;;;;;4971856;28;20041;-89
2022/04/07 10:48:43;;;;;;;5.07;1.50;;;8.20;99.90;;;;;;5031860;28;20033;-88
2022/04/07 10:51:10;;;;;;;3.58;1.48;;;8.20;99.90;;;;;;4998803;28;20045;-88
2022/04/07 10:53:51;;;;;;;6.25;1.60;;;8.20;99.90;;;;;;4998421;28;20419;-88
2022/04/07 10:56:34;;;;;;;1.55;1.00;;;8.20;99.90;;;;;;5015623;28;20037;-89
2022/04/07 10:59:24;;;;;;;4.28;1.30;;;8.20;99.90;;;;;;4998751;28;20037;-88
2022/04/07 11:01:55;;;;;;;3.88;1.30;;;8.10;99.90;;;;;;5015713;28;20068;-88
2022/04/07 11:04:23;;;;;;;4.05;1.33;;;8.10;99.90;;;;;;5016230;28;20068;-87
2022/04/07 11:07:19;;;;;;;3.38;1.08;;;8.10;99.90;;;;;;5014658;28;20038;-88
2022/04/07 11:10:11;;;;;;;2.25;1.05;;;8.10;99.90;;;;;;4998760;28;20030;-88
2022/04/07 11:12:59;;;;;;;2.72;2.08;;;8.10;99.90;;;;;;5032063;28;20029;-88
2022/04/07 11:15:44;;;;;;;4.60;1.42;;;8.20;99.90;;;;;;4998975;28;20026;-88
2022/04/07 11:18:35;;;;;;;2.20;1.30;;;8.10;99.90;;;;;;4998286;28;20389;-89
2022/04/07 11:21:09;;;;;;;4.90;1.77;;;8.20;99.90;;;;;;5016381;28;20120;-89
2022/04/07 11:23:44;;;;;;;2.13;1.55;;;8.30;99.90;;;;;;4997694;28;20482;-88
2022/04/07 11:26:34;;;;;;;3.17;1.30;;;8.50;99.90;;;;;;5014822;28;20397;-88
2022/04/07 11:29:02;;;;;;;7.38;1.50;;;8.60;99.90;;;;;;5015366;28;20125;-88
2022/04/07 11:31:43;;;;;;;2.28;0.93;;;8.50;99.90;;;;;;4997930;28;20034;-89
2022/04/07 11:34:39;;;;;;;1.75;1.15;;;8.60;99.90;;;;;;5014566;28;20030;-90
2022/04/07 11:37:16;;;;;;;3.30;0.95;;;8.50;99.90;;;;;;5014111;28;20384;-89
2022/04/07 11:39:45;;;;;;;1.10;0.60;;;8.50;99.90;;;;;;4998190;28;20029;-88
2022/04/07 11:42:11;;;;;;;1.42;1.20;;;8.60;99.90;;;;;;4998450;28;20036;-89
2022/04/07 11:44:37;;;;;;;1.88;1.00;;;8.60;99.90;;;;;;4998584;28;20025;-90
2022/04/07 11:47:03;;;;;;;3.30;0.98;;;8.70;99.90;;;;;;5015335;28;20109;-90
2022/04/07 11:49:29;;;;;;;8.32;0.82;;;8.80;99.90;;;;;;4997754;28;20041;-89
2022/04/07 11:51:55;;;;;;;4.88;1.88;;;8.80;99.90;;;;;;4997729;28;20029;-89
2022/04/07 11:54:22;;;;;;;1.25;0.82;;;8.80;99.90;;;;;;5014087;28;20048;-89
2022/04/07 11:56:48;;;;;;;1.00;0.85;;;8.80;99.90;;;;;;4997737;28;20026;-88
2022/04/07 11:59:15;;;;;;;1.65;1.02;;;8.90;99.90;;;;;;5014225;28;20493;-89
2022/04/07 12:01:43;;;;;;;1.38;0.82;;;8.90;99.90;;;;;;5031812;28;20037;-88
2022/04/07 12:04:11;;;;;;;1.27;0.77;;;9.00;99.90;;;;;;5014499;28;20088;-89
2022/04/07 12:06:40;;;;;;;4.15;1.60;;;9.10;99.90;;;;;;4998672;28;20029;-90
2022/04/07 12:09:06;;;;;;;4.25;0.90;;;9.20;99.90;;;;;;5015163;28;20034;-88
2022/04/07 12:11:39;;;;;;;2.30;0.80;;;9.20;99.90;;;;;;4998327;28;20026;-88
2022/04/07 12:14:11;;;;;;;1.90;0.82;;;9.30;99.90;;;;;;4998643;28;20030;-89
2022/04/07 12:16:48;;;;;;;5.90;1.50;;;9.40;99.90;;;;;;4997718;28;20037;-91
2022/04/07 12:19:15;;;;;;;3.88;1.20;;;9.40;99.90;;;;;;5010606;28;20497;-89
2022/04/07 12:21:53;;;;;;;2.55;0.90;;;9.60;99.90;;;;;;5031252;28;20089;-89
2022/04/07 12:24:19;;;;;;;0.85;0.75;;;9.50;99.90;;;;;;4995480;28;20033;-89
2022/04/07 12:26:49;;;;;;;2.60;1.05;;;9.60;99.90;;;;;;4996013;28;20026;-88
2022/04/07 12:29:30;;;;;;;1.47;0.80;;;9.60;99.90;;;;;;5011684;28;20033;-89
2022/04/07 12:32:05;;;;;;;4.43;2.28;;;9.60;99.90;;;;;;4998169;28;20663;-89
2022/04/07 12:34:31;;;;;;;3.10;0.88;;;9.60;99.90;;;;;;4998762;28;20030;-89
2022/04/07 12:36:57;;;;;;;3.40;0.70;;;9.50;99.90;;;;;;5014707;28;20048;-87
2022/04/07 12:39:28;;;;;;;1.67;0.93;;;9.60;99.90;;;;;;5015183;28;20026;-89
2022/04/07 12:42:03;;;;;;;1.38;0.90;;;9.60;99.90;;;;;;4997471;28;20026;-89
2022/04/07 12:44:36;;;;;;;2.30;0.80;;;9.70;99.90;;;;;;4981412;28;20504;-89
2022/04/07 12:47:11;;;;;;;3.25;0.77;;;9.80;99.90;;;;;;4998083;28;20041;-89
2022/04/07 12:49:37;;;;;;;1.88;1.33;;;9.80;99.90;;;;;;4997956;28;20026;-89
2022/04/07 12:52:08;;;;;;;2.20;0.70;;;9.90;99.90;;;;;;5014121;28;20056;-89
2022/04/07 12:54:35;;;;;;;1.48;1.08;;;9.80;99.90;;;;;;5014376;28;20079;-89
2022/04/07 12:57:12;;;;;;;1.67;1.13;;;9.80;99.90;;;;;;4997707;28;20062;-89
2022/04/07 12:59:39;;;;;;;0.88;0.77;;;9.80;99.90;;;;;;4997368;28;20049;-89
2022/04/07 13:02:05;;;;;;;0.80;0.73;;;9.90;99.90;;;;;;5014130;28;20919;-89
2022/04/07 13:04:53;;;;;;;1.40;0.80;;;9.90;99.90;;;;;;4997414;28;20134;-88